sensor_id;sensor_type;location;lat;lon;timestamp;temperature;humidity
14727;DHT22;7454;51.256;8.176;2023-10-09T00:02:09;13.90;79.30
14727;DHT22;7454;51.256;8.176;2023-10-09T00:04:36;13.80;79.30
14727;DHT22;7454;51.256;8.176;2023-10-09T00:07:03;13.90;79.30
14727;DHT22;7454;51.256;8.176;2023-10-09T00:09:34;13.80;79.30
14727;DHT22;7454;51.256;8.176;2023-10-09T00:12:13;13.80;79.20
14727;DHT22;7454;51.256;8.176;2023-10-09T00:14:41;13.70;79.20
14727;DHT22;7454;51.256;8.176;2023-10-09T00:17:14;13.80;79.30
14727;DHT22;7454;51.256;8.176;2023-10-09T00:19:46;13.80;79.30
14727;DHT22;7454;51.256;8.176;2023-10-09T00:22:25;13.80;79.30
14727;DHT22;7454;51.256;8.176;2023-10-09T00:24:54;13.70;79.30
14727;DHT22;7454;51.256;8.176;2023-10-09T00:27:42;13.70;79.30
14727;DHT22;7454;51.256;8.176;2023-10-09T00:30:12;13.70;79.30
14727;DHT22;7454;51.256;8.176;2023-10-09T00:32:47;13.70;79.40
14727;DHT22;7454;51.256;8.176;2023-10-09T00:35:29;13.70;79.40
14727;DHT22;7454;51.256;8.176;2023-10-09T00:38:10;13.80;79.50
14727;DHT22;7454;51.256;8.176;2023-10-09T00:40:41;13.70;79.40
14727;DHT22;7454;51.256;8.176;2023-10-09T00:43:18;13.90;79.50
14727;DHT22;7454;51.256;8.176;2023-10-09T00:45:45;13.80;79.50
14727;DHT22;7454;51.256;8.176;2023-10-09T00:48:12;13.80;79.50
14727;DHT22;7454;51.256;8.176;2023-10-09T00:50:47;13.80;79.50
14727;DHT22;7454;51.256;8.176;2023-10-09T00:53:17;13.70;79.40
14727;DHT22;7454;51.256;8.176;2023-10-09T00:55:43;13.60;79.20
14727;DHT22;7454;51.256;8.176;2023-10-09T00:58:21;13.60;79.10
14727;DHT22;7454;51.256;8.176;2023-10-09T01:00:56;13.50;79.00
14727;DHT22;7454;51.256;8.176;2023-10-09T01:03:24;13.40;79.10
14727;DHT22;7454;51.256;8.176;2023-10-09T01:05:54;13.40;79.10
14727;DHT22;7454;51.256;8.176;2023-10-09T01:08:38;13.40;79.00
14727;DHT22;7454;51.256;8.176;2023-10-09T01:11:11;13.40;79.00
14727;DHT22;7454;51.256;8.176;2023-10-09T01:13:55;13.40;79.00
14727;DHT22;7454;51.256;8.176;2023-10-09T01:16:37;13.40;79.10
14727;DHT22;7454;51.256;8.176;2023-10-09T01:19:03;13.30;79.00
14727;DHT22;7454;51.256;8.176;2023-10-09T01:21:38;13.30;79.00
14727;DHT22;7454;51.256;8.176;2023-10-09T01:24:05;13.40;79.10
14727;DHT22;7454;51.256;8.176;2023-10-09T01:26:38;13.40;79.10
14727;DHT22;7454;51.256;8.176;2023-10-09T01:31:43;13.30;79.30
14727;DHT22;7454;51.256;8.176;2023-10-09T01:34:31;13.30;79.40
14727;DHT22;7454;51.256;8.176;2023-10-09T01:37:03;13.40;79.50
14727;DHT22;7454;51.256;8.176;2023-10-09T01:39:52;13.60;79.50
14727;DHT22;7454;51.256;8.176;2023-10-09T01:42:23;13.50;79.50
14727;DHT22;7454;51.256;8.176;2023-10-09T01:44:55;13.50;79.50
14727;DHT22;7454;51.256;8.176;2023-10-09T01:47:23;13.50;79.40
14727;DHT22;7454;51.256;8.176;2023-10-09T01:49:51;13.50;79.40
14727;DHT22;7454;51.256;8.176;2023-10-09T01:52:19;13.50;79.40
14727;DHT22;7454;51.256;8.176;2023-10-09T01:54:46;13.60;79.40
14727;DHT22;7454;51.256;8.176;2023-10-09T01:57:19;13.50;79.40
14727;DHT22;7454;51.256;8.176;2023-10-09T01:59:49;13.50;79.40
14727;DHT22;7454;51.256;8.176;2023-10-09T02:02:19;13.50;79.50
14727;DHT22;7454;51.256;8.176;2023-10-09T02:05:01;13.50;79.50
14727;DHT22;7454;51.256;8.176;2023-10-09T02:07:32;13.50;79.40
14727;DHT22;7454;51.256;8.176;2023-10-09T02:10:10;13.50;79.40
14727;DHT22;7454;51.256;8.176;2023-10-09T02:13:02;13.50;79.50
14727;DHT22;7454;51.256;8.176;2023-10-09T02:15:42;13.50;79.60
14727;DHT22;7454;51.256;8.176;2023-10-09T02:18:09;13.50;79.70
14727;DHT22;7454;51.256;8.176;2023-10-09T02:20:52;13.50;79.60
14727;DHT22;7454;51.256;8.176;2023-10-09T02:23:31;13.70;79.70
14727;DHT22;7454;51.256;8.176;2023-10-09T02:26:07;13.60;79.70
14727;DHT22;7454;51.256;8.176;2023-10-09T02:28:33;13.60;79.70
14727;DHT22;7454;51.256;8.176;2023-10-09T02:31:09;13.80;79.70
14727;DHT22;7454;51.256;8.176;2023-10-09T02:33:36;13.60;79.60
14727;DHT22;7454;51.256;8.176;2023-10-09T02:36:07;13.80;79.60
14727;DHT22;7454;51.256;8.176;2023-10-09T02:38:34;13.60;79.70
14727;DHT22;7454;51.256;8.176;2023-10-09T02:41:02;13.60;79.60
14727;DHT22;7454;51.256;8.176;2023-10-09T02:43:29;13.60;79.60
14727;DHT22;7454;51.256;8.176;2023-10-09T02:46:02;13.50;79.50
14727;DHT22;7454;51.256;8.176;2023-10-09T02:48:38;13.50;79.40
14727;DHT22;7454;51.256;8.176;2023-10-09T02:51:08;13.50;79.40
14727;DHT22;7454;51.256;8.176;2023-10-09T02:53:41;13.40;79.30
14727;DHT22;7454;51.256;8.176;2023-10-09T02:56:08;13.40;79.30
14727;DHT22;7454;51.256;8.176;2023-10-09T02:58:40;13.40;79.40
14727;DHT22;7454;51.256;8.176;2023-10-09T03:01:09;13.40;79.30
14727;DHT22;7454;51.256;8.176;2023-10-09T03:03:36;13.40;79.40
14727;DHT22;7454;51.256;8.176;2023-10-09T03:06:04;13.40;79.30
14727;DHT22;7454;51.256;8.176;2023-10-09T03:08:37;13.40;79.30
14727;DHT22;7454;51.256;8.176;2023-10-09T03:11:03;13.40;79.40
14727;DHT22;7454;51.256;8.176;2023-10-09T03:13:31;13.40;79.30
14727;DHT22;7454;51.256;8.176;2023-10-09T03:15:58;13.30;79.40
14727;DHT22;7454;51.256;8.176;2023-10-09T03:18:24;13.40;79.40
14727;DHT22;7454;51.256;8.176;2023-10-09T03:20:50;13.40;79.40
14727;DHT22;7454;51.256;8.176;2023-10-09T03:23:16;13.40;79.40
14727;DHT22;7454;51.256;8.176;2023-10-09T03:25:41;13.40;79.40
14727;DHT22;7454;51.256;8.176;2023-10-09T03:28:11;13.50;79.40
14727;DHT22;7454;51.256;8.176;2023-10-09T03:30:37;13.50;79.40
14727;DHT22;7454;51.256;8.176;2023-10-09T03:33:05;13.60;79.50
14727;DHT22;7454;51.256;8.176;2023-10-09T03:35:32;13.60;79.50
14727;DHT22;7454;51.256;8.176;2023-10-09T03:37:59;13.60;79.50
14727;DHT22;7454;51.256;8.176;2023-10-09T03:40:28;13.60;79.50
14727;DHT22;7454;51.256;8.176;2023-10-09T03:42:53;13.60;79.50
14727;DHT22;7454;51.256;8.176;2023-10-09T03:45:20;13.60;79.50
14727;DHT22;7454;51.256;8.176;2023-10-09T03:47:53;13.60;79.50
14727;DHT22;7454;51.256;8.176;2023-10-09T03:50:22;13.60;79.50
14727;DHT22;7454;51.256;8.176;2023-10-09T03:53:14;13.70;79.50
14727;DHT22;7454;51.256;8.176;2023-10-09T03:55:41;13.70;79.50
14727;DHT22;7454;51.256;8.176;2023-10-09T03:58:07;13.70;79.50
14727;DHT22;7454;51.256;8.176;2023-10-09T04:00:37;13.80;79.50
14727;DHT22;7454;51.256;8.176;2023-10-09T04:03:14;13.70;79.50
14727;DHT22;7454;51.256;8.176;2023-10-09T04:05:41;13.70;79.50
14727;DHT22;7454;51.256;8.176;2023-10-09T04:08:09;13.70;79.50
14727;DHT22;7454;51.256;8.176;2023-10-09T04:10:54;13.70;79.40
14727;DHT22;7454;51.256;8.176;2023-10-09T04:13:27;13.70;79.40
14727;DHT22;7454;51.256;8.176;2023-10-09T04:15:59;13.70;79.40
14727;DHT22;7454;51.256;8.176;2023-10-09T04:18:34;13.70;79.40
14727;DHT22;7454;51.256;8.176;2023-10-09T04:21:04;13.60;79.50
14727;DHT22;7454;51.256;8.176;2023-10-09T04:24:03;13.70;79.50
14727;DHT22;7454;51.256;8.176;2023-10-09T04:26:38;13.60;79.40
14727;DHT22;7454;51.256;8.176;2023-10-09T04:29:16;13.60;79.40
14727;DHT22;7454;51.256;8.176;2023-10-09T04:32:03;13.60;79.40
14727;DHT22;7454;51.256;8.176;2023-10-09T04:34:33;13.60;79.50
14727;DHT22;7454;51.256;8.176;2023-10-09T04:37:03;13.60;79.50
14727;DHT22;7454;51.256;8.176;2023-10-09T04:39:48;13.60;79.50
14727;DHT22;7454;51.256;8.176;2023-10-09T04:42:15;13.60;79.50
14727;DHT22;7454;51.256;8.176;2023-10-09T04:44:44;13.60;79.50
14727;DHT22;7454;51.256;8.176;2023-10-09T04:47:45;13.60;79.50
14727;DHT22;7454;51.256;8.176;2023-10-09T04:50:23;13.80;79.60
14727;DHT22;7454;51.256;8.176;2023-10-09T04:53:12;13.60;79.60
14727;DHT22;7454;51.256;8.176;2023-10-09T04:55:41;13.70;79.60
14727;DHT22;7454;51.256;8.176;2023-10-09T04:58:22;13.70;79.60
14727;DHT22;7454;51.256;8.176;2023-10-09T05:00:52;13.70;79.60
14727;DHT22;7454;51.256;8.176;2023-10-09T05:03:24;13.70;79.60
14727;DHT22;7454;51.256;8.176;2023-10-09T05:05:53;13.70;79.60
14727;DHT22;7454;51.256;8.176;2023-10-09T05:08:25;13.70;79.60
14727;DHT22;7454;51.256;8.176;2023-10-09T05:13:24;13.70;79.60
14727;DHT22;7454;51.256;8.176;2023-10-09T05:16:08;13.70;79.60
14727;DHT22;7454;51.256;8.176;2023-10-09T05:18:44;13.70;79.60
14727;DHT22;7454;51.256;8.176;2023-10-09T05:21:12;13.70;79.60
14727;DHT22;7454;51.256;8.176;2023-10-09T05:23:38;13.70;79.70
14727;DHT22;7454;51.256;8.176;2023-10-09T05:26:14;13.70;79.60
14727;DHT22;7454;51.256;8.176;2023-10-09T05:28:59;13.70;79.70
14727;DHT22;7454;51.256;8.176;2023-10-09T05:31:25;13.70;79.70
14727;DHT22;7454;51.256;8.176;2023-10-09T05:34:09;13.80;79.70
14727;DHT22;7454;51.256;8.176;2023-10-09T05:36:37;13.80;79.80
14727;DHT22;7454;51.256;8.176;2023-10-09T05:39:03;13.80;79.80
14727;DHT22;7454;51.256;8.176;2023-10-09T05:42:04;13.80;79.80
14727;DHT22;7454;51.256;8.176;2023-10-09T05:44:37;13.90;79.80
14727;DHT22;7454;51.256;8.176;2023-10-09T05:47:41;13.90;79.80
14727;DHT22;7454;51.256;8.176;2023-10-09T05:50:30;13.90;79.80
14727;DHT22;7454;51.256;8.176;2023-10-09T05:53:00;13.90;79.80
14727;DHT22;7454;51.256;8.176;2023-10-09T05:55:26;13.90;79.80
14727;DHT22;7454;51.256;8.176;2023-10-09T05:58:11;14.00;79.80
14727;DHT22;7454;51.256;8.176;2023-10-09T06:00:56;14.00;79.90
14727;DHT22;7454;51.256;8.176;2023-10-09T06:03:50;13.90;79.80
14727;DHT22;7454;51.256;8.176;2023-10-09T06:06:20;14.00;79.90
14727;DHT22;7454;51.256;8.176;2023-10-09T06:09:02;14.00;79.90
14727;DHT22;7454;51.256;8.176;2023-10-09T06:11:41;14.00;79.90
14727;DHT22;7454;51.256;8.176;2023-10-09T06:14:17;14.10;79.90
14727;DHT22;7454;51.256;8.176;2023-10-09T06:16:56;14.00;79.90
14727;DHT22;7454;51.256;8.176;2023-10-09T06:19:23;13.90;79.80
14727;DHT22;7454;51.256;8.176;2023-10-09T06:21:57;14.10;79.90
14727;DHT22;7454;51.256;8.176;2023-10-09T06:24:42;14.10;79.90
14727;DHT22;7454;51.256;8.176;2023-10-09T06:27:08;14.10;79.90
14727;DHT22;7454;51.256;8.176;2023-10-09T06:29:38;14.10;79.90
14727;DHT22;7454;51.256;8.176;2023-10-09T06:32:16;14.20;80.00
14727;DHT22;7454;51.256;8.176;2023-10-09T06:37:19;14.20;79.90
14727;DHT22;7454;51.256;8.176;2023-10-09T06:45:07;14.30;80.00
14727;DHT22;7454;51.256;8.176;2023-10-09T06:47:45;14.30;79.90
14727;DHT22;7454;51.256;8.176;2023-10-09T06:50:24;14.40;80.00
14727;DHT22;7454;51.256;8.176;2023-10-09T06:52:50;14.40;80.00
14727;DHT22;7454;51.256;8.176;2023-10-09T06:55:23;14.40;80.00
14727;DHT22;7454;51.256;8.176;2023-10-09T06:58:21;14.50;80.00
14727;DHT22;7454;51.256;8.176;2023-10-09T07:00:55;14.40;80.00
14727;DHT22;7454;51.256;8.176;2023-10-09T07:03:24;14.40;80.00
14727;DHT22;7454;51.256;8.176;2023-10-09T07:06:03;14.40;79.90
14727;DHT22;7454;51.256;8.176;2023-10-09T07:08:55;14.40;80.00
14727;DHT22;7454;51.256;8.176;2023-10-09T07:11:34;14.50;80.10
14727;DHT22;7454;51.256;8.176;2023-10-09T07:17:00;14.50;80.10
14727;DHT22;7454;51.256;8.176;2023-10-09T07:19:30;14.60;80.00
14727;DHT22;7454;51.256;8.176;2023-10-09T07:21:59;14.60;80.10
14727;DHT22;7454;51.256;8.176;2023-10-09T07:24:30;14.60;80.10
14727;DHT22;7454;51.256;8.176;2023-10-09T07:27:09;14.60;80.10
14727;DHT22;7454;51.256;8.176;2023-10-09T07:29:37;14.70;80.10
14727;DHT22;7454;51.256;8.176;2023-10-09T07:32:23;15.00;80.20
14727;DHT22;7454;51.256;8.176;2023-10-09T07:34:52;14.80;80.20
14727;DHT22;7454;51.256;8.176;2023-10-09T07:37:19;14.80;80.20
14727;DHT22;7454;51.256;8.176;2023-10-09T07:39:50;14.80;80.20
14727;DHT22;7454;51.256;8.176;2023-10-09T07:42:32;15.00;80.20
14727;DHT22;7454;51.256;8.176;2023-10-09T07:45:06;14.90;80.10
14727;DHT22;7454;51.256;8.176;2023-10-09T07:47:48;15.00;80.10
14727;DHT22;7454;51.256;8.176;2023-10-09T07:50:39;15.10;80.20
14727;DHT22;7454;51.256;8.176;2023-10-09T07:53:14;15.10;80.00
14727;DHT22;7454;51.256;8.176;2023-10-09T07:55:46;15.00;80.10
14727;DHT22;7454;51.256;8.176;2023-10-09T07:58:21;15.20;80.20
14727;DHT22;7454;51.256;8.176;2023-10-09T08:00:51;15.20;80.10
14727;DHT22;7454;51.256;8.176;2023-10-09T08:03:33;15.20;80.20
14727;DHT22;7454;51.256;8.176;2023-10-09T08:06:01;15.30;80.30
14727;DHT22;7454;51.256;8.176;2023-10-09T08:08:53;15.40;80.30
14727;DHT22;7454;51.256;8.176;2023-10-09T08:11:31;15.50;80.10
14727;DHT22;7454;51.256;8.176;2023-10-09T08:14:08;15.50;80.10
14727;DHT22;7454;51.256;8.176;2023-10-09T08:16:55;15.50;80.10
14727;DHT22;7454;51.256;8.176;2023-10-09T08:19:40;15.60;80.10
14727;DHT22;7454;51.256;8.176;2023-10-09T08:22:36;15.60;80.00
14727;DHT22;7454;51.256;8.176;2023-10-09T08:25:09;15.70;80.00
14727;DHT22;7454;51.256;8.176;2023-10-09T08:27:55;15.80;80.10
14727;DHT22;7454;51.256;8.176;2023-10-09T08:30:23;15.80;80.00
14727;DHT22;7454;51.256;8.176;2023-10-09T08:32:50;15.80;79.90
14727;DHT22;7454;51.256;8.176;2023-10-09T08:35:28;15.80;80.00
14727;DHT22;7454;51.256;8.176;2023-10-09T08:38:13;15.90;80.00
14727;DHT22;7454;51.256;8.176;2023-10-09T08:40:40;15.90;79.90
14727;DHT22;7454;51.256;8.176;2023-10-09T08:45:59;15.90;79.80
14727;DHT22;7454;51.256;8.176;2023-10-09T08:48:34;16.00;79.80
14727;DHT22;7454;51.256;8.176;2023-10-09T08:51:02;16.00;79.90
14727;DHT22;7454;51.256;8.176;2023-10-09T08:53:31;16.00;79.80
14727;DHT22;7454;51.256;8.176;2023-10-09T08:55:58;16.00;79.70
14727;DHT22;7454;51.256;8.176;2023-10-09T08:58:24;16.10;79.90
14727;DHT22;7454;51.256;8.176;2023-10-09T09:01:02;16.00;79.80
14727;DHT22;7454;51.256;8.176;2023-10-09T09:03:37;16.10;79.80
14727;DHT22;7454;51.256;8.176;2023-10-09T09:06:04;16.10;79.80
14727;DHT22;7454;51.256;8.176;2023-10-09T09:08:31;16.10;79.80
14727;DHT22;7454;51.256;8.176;2023-10-09T09:11:07;16.00;79.80
14727;DHT22;7454;51.256;8.176;2023-10-09T09:13:47;16.20;79.90
14727;DHT22;7454;51.256;8.176;2023-10-09T09:16:44;16.20;79.80
14727;DHT22;7454;51.256;8.176;2023-10-09T09:19:13;16.20;79.80
14727;DHT22;7454;51.256;8.176;2023-10-09T09:21:56;16.30;79.80
14727;DHT22;7454;51.256;8.176;2023-10-09T09:24:24;16.30;79.80
14727;DHT22;7454;51.256;8.176;2023-10-09T09:26:51;16.30;79.80
14727;DHT22;7454;51.256;8.176;2023-10-09T09:32:08;16.30;79.80
14727;DHT22;7454;51.256;8.176;2023-10-09T09:37:20;16.40;79.80
14727;DHT22;7454;51.256;8.176;2023-10-09T09:39:47;16.40;79.90
14727;DHT22;7454;51.256;8.176;2023-10-09T09:42:17;16.50;79.90
14727;DHT22;7454;51.256;8.176;2023-10-09T09:44:53;16.60;80.00
14727;DHT22;7454;51.256;8.176;2023-10-09T09:47:21;16.50;79.80
14727;DHT22;7454;51.256;8.176;2023-10-09T09:49:54;16.50;79.80
14727;DHT22;7454;51.256;8.176;2023-10-09T09:52:28;16.50;79.70
14727;DHT22;7454;51.256;8.176;2023-10-09T09:54:54;16.70;79.80
14727;DHT22;7454;51.256;8.176;2023-10-09T09:57:20;16.70;79.70
14727;DHT22;7454;51.256;8.176;2023-10-09T09:59:51;16.90;79.70
14727;DHT22;7454;51.256;8.176;2023-10-09T10:02:52;16.80;79.70
14727;DHT22;7454;51.256;8.176;2023-10-09T10:05:11;16.90;79.70
14727;DHT22;7454;51.256;8.176;2023-10-09T10:07:41;17.00;79.70
14727;DHT22;7454;51.256;8.176;2023-10-09T10:12:58;17.00;79.70
14727;DHT22;7454;51.256;8.176;2023-10-09T10:18:57;17.10;79.70
14727;DHT22;7454;51.256;8.176;2023-10-09T10:21:40;17.10;79.40
14727;DHT22;7454;51.256;8.176;2023-10-09T10:27:17;17.30;79.60
14727;DHT22;7454;51.256;8.176;2023-10-09T10:35:21;17.40;79.50
14727;DHT22;7454;51.256;8.176;2023-10-09T10:43:37;17.50;79.20
14727;DHT22;7454;51.256;8.176;2023-10-09T10:46:21;17.50;79.00
14727;DHT22;7454;51.256;8.176;2023-10-09T10:49:04;17.60;79.00
14727;DHT22;7454;51.256;8.176;2023-10-09T10:51:51;17.60;79.00
14727;DHT22;7454;51.256;8.176;2023-10-09T10:54:26;17.70;78.90
14727;DHT22;7454;51.256;8.176;2023-10-09T10:56:58;17.70;78.80
14727;DHT22;7454;51.256;8.176;2023-10-09T10:59:25;17.70;78.90
14727;DHT22;7454;51.256;8.176;2023-10-09T11:01:58;17.70;78.70
14727;DHT22;7454;51.256;8.176;2023-10-09T11:04:28;17.80;78.80
14727;DHT22;7454;51.256;8.176;2023-10-09T11:07:00;17.80;78.70
14727;DHT22;7454;51.256;8.176;2023-10-09T11:15:08;17.80;78.60
14727;DHT22;7454;51.256;8.176;2023-10-09T11:18:04;17.90;78.60
14727;DHT22;7454;51.256;8.176;2023-10-09T11:20:34;17.90;78.60
14727;DHT22;7454;51.256;8.176;2023-10-09T11:23:01;17.90;78.60
14727;DHT22;7454;51.256;8.176;2023-10-09T11:25:37;17.90;78.60
14727;DHT22;7454;51.256;8.176;2023-10-09T11:28:25;18.00;78.70
14727;DHT22;7454;51.256;8.176;2023-10-09T11:31:13;17.80;78.60
14727;DHT22;7454;51.256;8.176;2023-10-09T11:33:42;18.00;78.70
14727;DHT22;7454;51.256;8.176;2023-10-09T11:36:11;18.00;78.60
14727;DHT22;7454;51.256;8.176;2023-10-09T11:38:37;18.00;78.70
14727;DHT22;7454;51.256;8.176;2023-10-09T11:41:16;18.00;78.70
14727;DHT22;7454;51.256;8.176;2023-10-09T11:43:48;18.00;78.70
14727;DHT22;7454;51.256;8.176;2023-10-09T11:46:18;17.90;78.70
14727;DHT22;7454;51.256;8.176;2023-10-09T11:49:06;18.00;78.70
14727;DHT22;7454;51.256;8.176;2023-10-09T11:52:04;18.00;78.70
14727;DHT22;7454;51.256;8.176;2023-10-09T11:54:34;18.10;78.60
14727;DHT22;7454;51.256;8.176;2023-10-09T11:57:00;18.20;78.60
14727;DHT22;7454;51.256;8.176;2023-10-09T11:59:30;18.20;78.40
14727;DHT22;7454;51.256;8.176;2023-10-09T12:02:09;18.20;78.10
14727;DHT22;7454;51.256;8.176;2023-10-09T12:04:39;18.20;77.80
14727;DHT22;7454;51.256;8.176;2023-10-09T12:07:08;18.40;77.80
14727;DHT22;7454;51.256;8.176;2023-10-09T12:09:38;18.20;77.60
14727;DHT22;7454;51.256;8.176;2023-10-09T12:12:07;18.30;77.70
14727;DHT22;7454;51.256;8.176;2023-10-09T12:14:36;18.30;77.70
14727;DHT22;7454;51.256;8.176;2023-10-09T12:17:05;18.50;77.70
14727;DHT22;7454;51.256;8.176;2023-10-09T12:19:35;18.50;77.60
14727;DHT22;7454;51.256;8.176;2023-10-09T12:22:02;18.40;77.50
14727;DHT22;7454;51.256;8.176;2023-10-09T12:24:31;18.50;77.40
14727;DHT22;7454;51.256;8.176;2023-10-09T12:26:58;18.50;77.30
14727;DHT22;7454;51.256;8.176;2023-10-09T12:29:28;18.50;77.50
14727;DHT22;7454;51.256;8.176;2023-10-09T12:31:56;18.50;77.50
14727;DHT22;7454;51.256;8.176;2023-10-09T12:34:26;18.50;77.40
14727;DHT22;7454;51.256;8.176;2023-10-09T12:36:56;18.50;77.20
14727;DHT22;7454;51.256;8.176;2023-10-09T12:39:27;18.50;77.20
14727;DHT22;7454;51.256;8.176;2023-10-09T12:41:59;18.50;77.10
14727;DHT22;7454;51.256;8.176;2023-10-09T12:44:32;18.50;77.10
14727;DHT22;7454;51.256;8.176;2023-10-09T12:47:03;18.50;77.10
14727;DHT22;7454;51.256;8.176;2023-10-09T12:49:30;18.50;77.20
14727;DHT22;7454;51.256;8.176;2023-10-09T12:51:56;18.50;77.10
14727;DHT22;7454;51.256;8.176;2023-10-09T12:54:25;18.50;77.00
14727;DHT22;7454;51.256;8.176;2023-10-09T12:56:54;18.50;77.00
14727;DHT22;7454;51.256;8.176;2023-10-09T12:59:20;18.50;77.10
14727;DHT22;7454;51.256;8.176;2023-10-09T13:01:46;18.40;77.00
14727;DHT22;7454;51.256;8.176;2023-10-09T13:04:17;18.40;77.00
14727;DHT22;7454;51.256;8.176;2023-10-09T13:06:47;18.40;77.10
14727;DHT22;7454;51.256;8.176;2023-10-09T13:09:17;18.40;77.10
14727;DHT22;7454;51.256;8.176;2023-10-09T13:12:08;18.30;77.10
14727;DHT22;7454;51.256;8.176;2023-10-09T13:14:35;18.30;77.20
14727;DHT22;7454;51.256;8.176;2023-10-09T13:17:01;18.30;77.30
14727;DHT22;7454;51.256;8.176;2023-10-09T13:19:35;18.30;77.30
14727;DHT22;7454;51.256;8.176;2023-10-09T13:22:01;18.20;77.20
14727;DHT22;7454;51.256;8.176;2023-10-09T13:24:32;18.20;77.30
14727;DHT22;7454;51.256;8.176;2023-10-09T13:26:57;18.20;77.20
14727;DHT22;7454;51.256;8.176;2023-10-09T13:29:24;18.20;77.20
14727;DHT22;7454;51.256;8.176;2023-10-09T13:31:50;18.20;77.30
14727;DHT22;7454;51.256;8.176;2023-10-09T13:34:23;18.20;77.30
14727;DHT22;7454;51.256;8.176;2023-10-09T13:36:53;18.20;77.20
14727;DHT22;7454;51.256;8.176;2023-10-09T13:39:19;18.10;77.20
14727;DHT22;7454;51.256;8.176;2023-10-09T13:41:55;18.20;77.20
14727;DHT22;7454;51.256;8.176;2023-10-09T13:44:32;18.20;77.20
14727;DHT22;7454;51.256;8.176;2023-10-09T13:46:59;18.20;77.20
14727;DHT22;7454;51.256;8.176;2023-10-09T13:49:28;18.20;77.20
14727;DHT22;7454;51.256;8.176;2023-10-09T13:52:00;18.10;77.40
14727;DHT22;7454;51.256;8.176;2023-10-09T13:54:27;18.20;77.30
14727;DHT22;7454;51.256;8.176;2023-10-09T13:57:07;18.20;77.30
14727;DHT22;7454;51.256;8.176;2023-10-09T13:59:36;18.10;77.20
14727;DHT22;7454;51.256;8.176;2023-10-09T14:02:02;18.10;77.20
14727;DHT22;7454;51.256;8.176;2023-10-09T14:04:34;18.20;77.10
14727;DHT22;7454;51.256;8.176;2023-10-09T14:07:01;18.10;77.10
14727;DHT22;7454;51.256;8.176;2023-10-09T14:09:31;18.10;77.00
14727;DHT22;7454;51.256;8.176;2023-10-09T14:12:00;18.20;77.20
14727;DHT22;7454;51.256;8.176;2023-10-09T14:17:22;18.10;77.20
14727;DHT22;7454;51.256;8.176;2023-10-09T14:19:56;18.10;77.30
14727;DHT22;7454;51.256;8.176;2023-10-09T14:22:41;18.10;77.40
14727;DHT22;7454;51.256;8.176;2023-10-09T14:25:07;18.10;77.30
14727;DHT22;7454;51.256;8.176;2023-10-09T14:27:40;18.10;77.40
14727;DHT22;7454;51.256;8.176;2023-10-09T14:30:06;18.10;77.40
14727;DHT22;7454;51.256;8.176;2023-10-09T14:32:38;18.10;77.40
14727;DHT22;7454;51.256;8.176;2023-10-09T14:35:16;18.10;77.50
14727;DHT22;7454;51.256;8.176;2023-10-09T14:37:47;18.10;77.50
14727;DHT22;7454;51.256;8.176;2023-10-09T14:40:12;18.10;77.40
14727;DHT22;7454;51.256;8.176;2023-10-09T14:42:41;18.10;77.40
14727;DHT22;7454;51.256;8.176;2023-10-09T14:45:11;18.10;77.50
14727;DHT22;7454;51.256;8.176;2023-10-09T14:47:41;18.10;77.70
14727;DHT22;7454;51.256;8.176;2023-10-09T14:50:07;18.10;77.50
14727;DHT22;7454;51.256;8.176;2023-10-09T14:52:35;18.10;77.60
14727;DHT22;7454;51.256;8.176;2023-10-09T14:55:04;18.10;77.60
14727;DHT22;7454;51.256;8.176;2023-10-09T14:57:31;18.10;77.80
14727;DHT22;7454;51.256;8.176;2023-10-09T15:00:00;18.10;77.70
14727;DHT22;7454;51.256;8.176;2023-10-09T15:02:27;18.10;77.60
14727;DHT22;7454;51.256;8.176;2023-10-09T15:04:54;18.20;77.70
14727;DHT22;7454;51.256;8.176;2023-10-09T15:07:20;18.10;77.60
14727;DHT22;7454;51.256;8.176;2023-10-09T15:09:46;18.10;77.70
14727;DHT22;7454;51.256;8.176;2023-10-09T15:12:12;18.10;77.50
14727;DHT22;7454;51.256;8.176;2023-10-09T15:14:38;18.00;77.60
14727;DHT22;7454;51.256;8.176;2023-10-09T15:17:04;18.00;77.60
14727;DHT22;7454;51.256;8.176;2023-10-09T15:19:32;18.00;77.60
14727;DHT22;7454;51.256;8.176;2023-10-09T15:21:58;17.90;77.50
14727;DHT22;7454;51.256;8.176;2023-10-09T15:27:31;18.00;77.70
14727;DHT22;7454;51.256;8.176;2023-10-09T15:29:57;18.10;77.80
14727;DHT22;7454;51.256;8.176;2023-10-09T15:32:23;17.90;77.60
14727;DHT22;7454;51.256;8.176;2023-10-09T15:34:54;17.90;77.80
14727;DHT22;7454;51.256;8.176;2023-10-09T15:37:22;17.90;77.80
14727;DHT22;7454;51.256;8.176;2023-10-09T15:39:48;17.80;77.70
14727;DHT22;7454;51.256;8.176;2023-10-09T15:42:15;17.80;77.70
14727;DHT22;7454;51.256;8.176;2023-10-09T15:44:42;17.70;77.70
14727;DHT22;7454;51.256;8.176;2023-10-09T15:47:13;17.80;77.80
14727;DHT22;7454;51.256;8.176;2023-10-09T15:49:41;17.90;77.90
14727;DHT22;7454;51.256;8.176;2023-10-09T15:52:09;17.70;77.90
14727;DHT22;7454;51.256;8.176;2023-10-09T15:54:42;17.70;77.80
14727;DHT22;7454;51.256;8.176;2023-10-09T15:57:09;17.70;77.90
14727;DHT22;7454;51.256;8.176;2023-10-09T15:59:35;17.70;77.80
14727;DHT22;7454;51.256;8.176;2023-10-09T16:02:01;17.80;77.90
14727;DHT22;7454;51.256;8.176;2023-10-09T16:04:36;17.60;77.90
14727;DHT22;7454;51.256;8.176;2023-10-09T16:07:03;17.70;77.90
14727;DHT22;7454;51.256;8.176;2023-10-09T16:09:33;17.70;77.90
14727;DHT22;7454;51.256;8.176;2023-10-09T16:12:07;17.70;77.90
14727;DHT22;7454;51.256;8.176;2023-10-09T16:14:38;17.60;77.90
14727;DHT22;7454;51.256;8.176;2023-10-09T16:17:04;17.60;77.90
14727;DHT22;7454;51.256;8.176;2023-10-09T16:19:34;17.60;78.00
14727;DHT22;7454;51.256;8.176;2023-10-09T16:22:04;17.60;78.00
14727;DHT22;7454;51.256;8.176;2023-10-09T16:24:33;17.70;78.10
14727;DHT22;7454;51.256;8.176;2023-10-09T16:27:01;17.60;78.00
14727;DHT22;7454;51.256;8.176;2023-10-09T16:29:27;17.50;78.00
14727;DHT22;7454;51.256;8.176;2023-10-09T16:31:55;17.50;78.10
14727;DHT22;7454;51.256;8.176;2023-10-09T16:34:26;17.50;78.10
14727;DHT22;7454;51.256;8.176;2023-10-09T16:37:07;17.50;78.10
14727;DHT22;7454;51.256;8.176;2023-10-09T16:39:34;17.50;78.10
14727;DHT22;7454;51.256;8.176;2023-10-09T16:42:07;17.50;78.10
14727;DHT22;7454;51.256;8.176;2023-10-09T16:44:35;17.50;78.10
14727;DHT22;7454;51.256;8.176;2023-10-09T16:47:02;17.50;78.10
14727;DHT22;7454;51.256;8.176;2023-10-09T16:49:29;17.50;78.10
14727;DHT22;7454;51.256;8.176;2023-10-09T16:51:56;17.50;78.20
14727;DHT22;7454;51.256;8.176;2023-10-09T16:54:23;17.50;78.20
14727;DHT22;7454;51.256;8.176;2023-10-09T16:56:54;17.40;78.20
14727;DHT22;7454;51.256;8.176;2023-10-09T16:59:22;17.40;78.20
14727;DHT22;7454;51.256;8.176;2023-10-09T17:01:48;17.40;78.20
14727;DHT22;7454;51.256;8.176;2023-10-09T17:04:14;17.40;78.20
14727;DHT22;7454;51.256;8.176;2023-10-09T17:06:50;17.30;78.20
14727;DHT22;7454;51.256;8.176;2023-10-09T17:09:24;17.30;78.20
14727;DHT22;7454;51.256;8.176;2023-10-09T17:11:52;17.30;78.20
14727;DHT22;7454;51.256;8.176;2023-10-09T17:14:25;17.30;78.30
14727;DHT22;7454;51.256;8.176;2023-10-09T17:16:54;17.20;78.20